WZZ121 LIEO-LIME
Flight info
| Callsign | WZZ121 |
|---|---|
| Flight time | 0h 52m |
| Altitude | 18000 |
| Route | BATOX L5 TINTO/N0446F320 DCT ROSKI DCT LOMED/N0369F180 L995 OSBUL |
| Aircraft | A321/M-SDE3FGHIRWY/LB1 |
Departure
| Time | 2026-05-07 13:25 |
|---|---|
| Airport | Olbia Costa Smeralda Airport (LIEO) |
Arrival
| Time | 2026-05-07 14:17 |
|---|---|
| Airport | Il Caravaggio International Airport (LIME) |
| Time | Latitude | Longitude | Altitude | Speed | Heading |
|---|---|---|---|---|---|
| 2026-05-07 13:07 | 40.90240 | 9.51669 | 34 ft | 0 kts | 325° |
| 2026-05-07 13:14 | 40.90236 | 9.51671 | 34 ft | 3 kts | 325° |
| 2026-05-07 13:14 | 40.90221 | 9.51686 | 33 ft | 3 kts | 325° |
| 2026-05-07 13:14 | 40.90206 | 9.51700 | 32 ft | 3 kts | 325° |
| 2026-05-07 13:14 | 40.90190 | 9.51714 | 32 ft | 3 kts | 310° |
| 2026-05-07 13:15 | 40.90183 | 9.51731 | 33 ft | 0 kts | 276° |
| 2026-05-07 13:18 | 40.90183 | 9.51730 | 33 ft | 1 kts | 276° |
| 2026-05-07 13:18 | 40.90184 | 9.51717 | 32 ft | 2 kts | 275° |
| 2026-05-07 13:18 | 40.90181 | 9.51692 | 32 ft | 4 kts | 251° |
| 2026-05-07 13:18 | 40.90166 | 9.51655 | 34 ft | 5 kts | 239° |
| 2026-05-07 13:19 | 40.90143 | 9.51610 | 34 ft | 7 kts | 235° |
| 2026-05-07 13:19 | 40.90114 | 9.51556 | 34 ft | 8 kts | 235° |
| 2026-05-07 13:19 | 40.90082 | 9.51495 | 34 ft | 9 kts | 231° |
| 2026-05-07 13:19 | 40.90029 | 9.51498 | 34 ft | 9 kts | 152° |
| 2026-05-07 13:20 | 40.89970 | 9.51512 | 34 ft | 9 kts | 192° |
| 2026-05-07 13:20 | 40.89915 | 9.51461 | 34 ft | 10 kts | 229° |
| 2026-05-07 13:20 | 40.89870 | 9.51381 | 34 ft | 11 kts | 234° |
| 2026-05-07 13:20 | 40.89824 | 9.51293 | 34 ft | 12 kts | 236° |
| 2026-05-07 13:21 | 40.89775 | 9.51198 | 34 ft | 13 kts | 236° |
| 2026-05-07 13:21 | 40.89722 | 9.51098 | 34 ft | 14 kts | 234° |
| 2026-05-07 13:21 | 40.89665 | 9.50992 | 34 ft | 15 kts | 234° |
| 2026-05-07 13:21 | 40.89606 | 9.50879 | 34 ft | 15 kts | 237° |
| 2026-05-07 13:22 | 40.89547 | 9.50759 | 34 ft | 16 kts | 235° |
| 2026-05-07 13:22 | 40.89482 | 9.50638 | 34 ft | 16 kts | 234° |
| 2026-05-07 13:22 | 40.89414 | 9.50513 | 34 ft | 17 kts | 235° |
| 2026-05-07 13:22 | 40.89321 | 9.50443 | 34 ft | 16 kts | 169° |
| 2026-05-07 13:23 | 40.89301 | 9.50458 | 34 ft | 1 kts | 144° |
| 2026-05-07 13:23 | 40.89280 | 9.50493 | 34 ft | 11 kts | 117° |
| 2026-05-07 13:23 | 40.89268 | 9.50597 | 35 ft | 12 kts | 83° |
| 2026-05-07 13:23 | 40.89307 | 9.50693 | 34 ft | 13 kts | 55° |
| 2026-05-07 13:24 | 40.89361 | 9.50795 | 32 ft | 15 kts | 55° |
| 2026-05-07 13:24 | 40.89521 | 9.51098 | 33 ft | 75 kts | 55° |
| 2026-05-07 13:24 | 40.89939 | 9.51904 | 33 ft | 135 kts | 56° |
| 2026-05-07 13:24 | 40.90510 | 9.53040 | 474 ft | 144 kts | 58° |
| 2026-05-07 13:25 | 40.91031 | 9.54121 | 1120 ft | 143 kts | 57° |
| 2026-05-07 13:25 | 40.91595 | 9.55212 | 1699 ft | 145 kts | 56° |
| 2026-05-07 13:25 | 40.92200 | 9.56289 | 2159 ft | 147 kts | 54° |
| 2026-05-07 13:25 | 40.92830 | 9.57395 | 2524 ft | 154 kts | 54° |
| 2026-05-07 13:26 | 40.93475 | 9.58550 | 2894 ft | 158 kts | 55° |
| 2026-05-07 13:26 | 40.94138 | 9.59762 | 3191 ft | 167 kts | 55° |
| 2026-05-07 13:26 | 40.94847 | 9.61053 | 3421 ft | 181 kts | 54° |
| 2026-05-07 13:26 | 40.95612 | 9.62443 | 3670 ft | 192 kts | 55° |
| 2026-05-07 13:27 | 40.96400 | 9.63913 | 3993 ft | 199 kts | 55° |
| 2026-05-07 13:27 | 40.97195 | 9.65435 | 4349 ft | 203 kts | 56° |
| 2026-05-07 13:27 | 40.97990 | 9.66992 | 4704 ft | 207 kts | 56° |
| 2026-05-07 13:27 | 40.98838 | 9.68647 | 4810 ft | 227 kts | 57° |
| 2026-05-07 13:28 | 40.99726 | 9.70474 | 4949 ft | 245 kts | 58° |
| 2026-05-07 13:28 | 41.00664 | 9.72450 | 5072 ft | 261 kts | 58° |
| 2026-05-07 13:28 | 41.01644 | 9.74520 | 5363 ft | 268 kts | 58° |
| 2026-05-07 13:28 | 41.02646 | 9.76625 | 5736 ft | 272 kts | 58° |
| 2026-05-07 13:29 | 41.03664 | 9.78751 | 6137 ft | 274 kts | 58° |
| 2026-05-07 13:29 | 41.04691 | 9.80893 | 6521 ft | 277 kts | 58° |
| 2026-05-07 13:29 | 41.05729 | 9.83054 | 6883 ft | 279 kts | 58° |
| 2026-05-07 13:29 | 41.06782 | 9.85228 | 7241 ft | 282 kts | 55° |
| 2026-05-07 13:30 | 41.08169 | 9.87053 | 7582 ft | 284 kts | 32° |
| 2026-05-07 13:30 | 41.09992 | 9.88050 | 7932 ft | 285 kts | 15° |
| 2026-05-07 13:30 | 41.11908 | 9.88757 | 8313 ft | 287 kts | 15° |
| 2026-05-07 13:30 | 41.13839 | 9.89459 | 8670 ft | 289 kts | 14° |
| 2026-05-07 13:31 | 41.15787 | 9.90166 | 9031 ft | 291 kts | 14° |
| 2026-05-07 13:31 | 41.17749 | 9.90879 | 9377 ft | 293 kts | 14° |
| 2026-05-07 13:31 | 41.19724 | 9.91601 | 9735 ft | 295 kts | 14° |
| 2026-05-07 13:31 | 41.21688 | 9.92318 | 10041 ft | 299 kts | 14° |
| 2026-05-07 13:32 | 41.23725 | 9.93062 | 10150 ft | 308 kts | 14° |
| 2026-05-07 13:32 | 41.25821 | 9.93827 | 10272 ft | 316 kts | 14° |
| 2026-05-07 13:32 | 41.27963 | 9.94609 | 10395 ft | 323 kts | 14° |
| 2026-05-07 13:32 | 41.30148 | 9.95410 | 10514 ft | 329 kts | 14° |
| 2026-05-07 13:33 | 41.32371 | 9.96228 | 10634 ft | 334 kts | 14° |
| 2026-05-07 13:33 | 41.34618 | 9.97060 | 10803 ft | 336 kts | 14° |
| 2026-05-07 13:33 | 41.36881 | 9.97898 | 10975 ft | 339 kts | 14° |
| 2026-05-07 13:33 | 41.39156 | 9.98740 | 11172 ft | 340 kts | 14° |
| 2026-05-07 13:34 | 41.41440 | 9.99584 | 11369 ft | 341 kts | 14° |
| 2026-05-07 13:34 | 41.46032 | 10.01282 | 11748 ft | 344 kts | 14° |
| 2026-05-07 13:34 | 41.48339 | 10.02136 | 11934 ft | 345 kts | 14° |
| 2026-05-07 13:35 | 41.50658 | 10.02994 | 12111 ft | 346 kts | 14° |
| 2026-05-07 13:35 | 41.52982 | 10.03851 | 12290 ft | 347 kts | 13° |
| 2026-05-07 13:35 | 41.55316 | 10.04715 | 12466 ft | 349 kts | 13° |
| 2026-05-07 13:35 | 41.57660 | 10.05586 | 12619 ft | 350 kts | 13° |
| 2026-05-07 13:36 | 41.60011 | 10.06463 | 12782 ft | 352 kts | 13° |
| 2026-05-07 13:36 | 41.62373 | 10.07343 | 12945 ft | 353 kts | 13° |
| 2026-05-07 13:36 | 41.64743 | 10.08224 | 13098 ft | 354 kts | 13° |
| 2026-05-07 13:36 | 41.67119 | 10.09106 | 13263 ft | 355 kts | 13° |
| 2026-05-07 13:37 | 41.69505 | 10.09992 | 13407 ft | 356 kts | 13° |
| 2026-05-07 13:37 | 41.71896 | 10.10882 | 13557 ft | 357 kts | 13° |
| 2026-05-07 13:37 | 41.74263 | 10.11766 | 13697 ft | 358 kts | 13° |
| 2026-05-07 13:37 | 41.76669 | 10.12664 | 13837 ft | 360 kts | 13° |
| 2026-05-07 13:38 | 41.79081 | 10.13564 | 13963 ft | 360 kts | 13° |
| 2026-05-07 13:38 | 41.81498 | 10.14465 | 14094 ft | 361 kts | 13° |
| 2026-05-07 13:38 | 41.83918 | 10.15374 | 14222 ft | 361 kts | 13° |
| 2026-05-07 13:38 | 41.86342 | 10.16286 | 14347 ft | 362 kts | 13° |
| 2026-05-07 13:39 | 41.88766 | 10.17196 | 14467 ft | 362 kts | 13° |
| 2026-05-07 13:39 | 41.91198 | 10.18107 | 14587 ft | 363 kts | 13° |
| 2026-05-07 13:39 | 41.93632 | 10.19020 | 14707 ft | 364 kts | 13° |
| 2026-05-07 13:39 | 41.96070 | 10.19934 | 14840 ft | 364 kts | 13° |
| 2026-05-07 13:40 | 41.98506 | 10.20845 | 14960 ft | 364 kts | 13° |
| 2026-05-07 13:40 | 42.00945 | 10.21759 | 15086 ft | 364 kts | 13° |
| 2026-05-07 13:40 | 42.03388 | 10.22679 | 15198 ft | 365 kts | 13° |
| 2026-05-07 13:40 | 42.05832 | 10.23601 | 15333 ft | 365 kts | 13° |
| 2026-05-07 13:41 | 42.08276 | 10.24527 | 15444 ft | 365 kts | 13° |
| 2026-05-07 13:41 | 42.10724 | 10.25453 | 15556 ft | 365 kts | 13° |
| 2026-05-07 13:41 | 42.13175 | 10.26376 | 15691 ft | 366 kts | 13° |
| 2026-05-07 13:41 | 42.15623 | 10.27300 | 15825 ft | 366 kts | 13° |
| 2026-05-07 13:42 | 42.18075 | 10.28229 | 15947 ft | 366 kts | 13° |
| 2026-05-07 13:42 | 42.20526 | 10.29160 | 16076 ft | 366 kts | 13° |
| 2026-05-07 13:42 | 42.22975 | 10.30092 | 16200 ft | 366 kts | 13° |
| 2026-05-07 13:42 | 42.24598 | 10.30710 | 16285 ft | 366 kts | 13° |
| 2026-05-07 13:43 | 42.27048 | 10.31640 | 16416 ft | 366 kts | 12° |
| 2026-05-07 13:43 | 42.30292 | 10.32867 | 16583 ft | 366 kts | 12° |
| 2026-05-07 13:43 | 42.32741 | 10.33795 | 16748 ft | 363 kts | 12° |
| 2026-05-07 13:43 | 42.35100 | 10.34697 | 17451 ft | 341 kts | 12° |
| 2026-05-07 13:44 | 42.37323 | 10.35555 | 17943 ft | 327 kts | 12° |
| 2026-05-07 13:44 | 42.39496 | 10.36389 | 18103 ft | 324 kts | 11° |
| 2026-05-07 13:44 | 42.40916 | 10.36931 | 18463 ft | 317 kts | 11° |
| 2026-05-07 13:44 | 42.43031 | 10.37735 | 18929 ft | 321 kts | 11° |
| 2026-05-07 13:45 | 42.45234 | 10.38565 | 19046 ft | 336 kts | 11° |
| 2026-05-07 13:45 | 42.47540 | 10.39431 | 19171 ft | 352 kts | 11° |
| 2026-05-07 13:45 | 42.49945 | 10.40339 | 19296 ft | 367 kts | 11° |
| 2026-05-07 13:45 | 42.52452 | 10.41289 | 19419 ft | 381 kts | 12° |
| 2026-05-07 13:46 | 42.55053 | 10.42284 | 19569 ft | 396 kts | 12° |
| 2026-05-07 13:46 | 42.57749 | 10.43320 | 19677 ft | 410 kts | 12° |
| 2026-05-07 13:46 | 42.60541 | 10.44392 | 19789 ft | 424 kts | 12° |
| 2026-05-07 13:46 | 42.63421 | 10.45499 | 19930 ft | 436 kts | 12° |
| 2026-05-07 13:47 | 42.66381 | 10.46639 | 20067 ft | 447 kts | 12° |
| 2026-05-07 13:47 | 42.69399 | 10.47803 | 20370 ft | 453 kts | 12° |
| 2026-05-07 13:47 | 42.72443 | 10.48979 | 20750 ft | 457 kts | 12° |
| 2026-05-07 13:47 | 42.75514 | 10.50152 | 21155 ft | 459 kts | 10° |
| 2026-05-07 13:48 | 42.78652 | 10.50703 | 21538 ft | 453 kts | 355° |
| 2026-05-07 13:48 | 42.81791 | 10.50452 | 21932 ft | 453 kts | 351° |
| 2026-05-07 13:48 | 42.84941 | 10.50139 | 22332 ft | 455 kts | 351° |
| 2026-05-07 13:48 | 42.88125 | 10.49809 | 22528 ft | 463 kts | 351° |
| 2026-05-07 13:49 | 42.91363 | 10.49471 | 22661 ft | 471 kts | 351° |
| 2026-05-07 13:49 | 42.94610 | 10.49133 | 22803 ft | 478 kts | 351° |
| 2026-05-07 13:49 | 42.97950 | 10.48788 | 22948 ft | 486 kts | 351° |
| 2026-05-07 13:49 | 43.01389 | 10.48436 | 23154 ft | 491 kts | 351° |
| 2026-05-07 13:50 | 43.04806 | 10.48091 | 23424 ft | 494 kts | 351° |
| 2026-05-07 13:50 | 43.08241 | 10.47741 | 23680 ft | 496 kts | 351° |
| 2026-05-07 13:50 | 43.11684 | 10.47386 | 23911 ft | 497 kts | 351° |
| 2026-05-07 13:50 | 43.15141 | 10.47028 | 24148 ft | 499 kts | 351° |
| 2026-05-07 13:51 | 43.18608 | 10.46671 | 24351 ft | 500 kts | 351° |
| 2026-05-07 13:51 | 43.22084 | 10.46315 | 24540 ft | 502 kts | 351° |
| 2026-05-07 13:51 | 43.25570 | 10.45961 | 24723 ft | 503 kts | 351° |
| 2026-05-07 13:51 | 43.29029 | 10.45605 | 25395 ft | 491 kts | 350° |
| 2026-05-07 13:52 | 43.32409 | 10.45254 | 26054 ft | 485 kts | 350° |
| 2026-05-07 13:52 | 43.35725 | 10.44908 | 26468 ft | 484 kts | 349° |
| 2026-05-07 13:52 | 43.39074 | 10.44556 | 26926 ft | 482 kts | 349° |
| 2026-05-07 13:52 | 43.42414 | 10.44207 | 27283 ft | 483 kts | 349° |
| 2026-05-07 13:53 | 43.45781 | 10.43854 | 27412 ft | 487 kts | 349° |
| 2026-05-07 13:53 | 43.49177 | 10.43499 | 27545 ft | 491 kts | 349° |
| 2026-05-07 13:53 | 43.52593 | 10.43145 | 27680 ft | 494 kts | 349° |
| 2026-05-07 13:53 | 43.56034 | 10.42791 | 27868 ft | 496 kts | 349° |
| 2026-05-07 13:54 | 43.59480 | 10.42434 | 28014 ft | 496 kts | 349° |
| 2026-05-07 13:54 | 43.66359 | 10.41707 | 28029 ft | 496 kts | 349° |
| 2026-05-07 13:55 | 43.73236 | 10.40976 | 28027 ft | 496 kts | 349° |
| 2026-05-07 13:55 | 43.80110 | 10.40265 | 28018 ft | 494 kts | 349° |
| 2026-05-07 13:56 | 43.86963 | 10.39548 | 28018 ft | 494 kts | 349° |
| 2026-05-07 13:56 | 43.93828 | 10.38817 | 28018 ft | 495 kts | 349° |
| 2026-05-07 13:57 | 44.00694 | 10.38102 | 28006 ft | 494 kts | 349° |
| 2026-05-07 13:57 | 44.04069 | 10.37747 | 28000 ft | 493 kts | 349° |
| 2026-05-07 13:57 | 44.07493 | 10.37379 | 27995 ft | 493 kts | 349° |
| 2026-05-07 13:57 | 44.10915 | 10.37008 | 27995 ft | 493 kts | 349° |
| 2026-05-07 13:58 | 44.14334 | 10.36640 | 27998 ft | 494 kts | 349° |
| 2026-05-07 13:58 | 44.17754 | 10.36277 | 27986 ft | 491 kts | 349° |
| 2026-05-07 13:58 | 44.21159 | 10.35921 | 28000 ft | 491 kts | 349° |
| 2026-05-07 13:58 | 44.24563 | 10.35582 | 27989 ft | 491 kts | 349° |
| 2026-05-07 13:59 | 44.27970 | 10.35259 | 27992 ft | 491 kts | 350° |
| 2026-05-07 13:59 | 44.31373 | 10.34947 | 27826 ft | 488 kts | 350° |
| 2026-05-07 13:59 | 44.34753 | 10.34639 | 26990 ft | 487 kts | 350° |
| 2026-05-07 13:59 | 44.38140 | 10.34314 | 26715 ft | 490 kts | 350° |
| 2026-05-07 14:00 | 44.41548 | 10.33975 | 26456 ft | 492 kts | 350° |
| 2026-05-07 14:00 | 44.44964 | 10.33634 | 26195 ft | 493 kts | 350° |
| 2026-05-07 14:00 | 44.48386 | 10.33295 | 25953 ft | 494 kts | 350° |
| 2026-05-07 14:00 | 44.51820 | 10.32958 | 25699 ft | 495 kts | 351° |
| 2026-05-07 14:01 | 44.55255 | 10.32623 | 25501 ft | 494 kts | 350° |
| 2026-05-07 14:01 | 44.58679 | 10.32286 | 25470 ft | 493 kts | 350° |
| 2026-05-07 14:01 | 44.62110 | 10.31947 | 25382 ft | 494 kts | 351° |
| 2026-05-07 14:01 | 44.65538 | 10.31613 | 25324 ft | 494 kts | 351° |
| 2026-05-07 14:02 | 44.68964 | 10.31283 | 25398 ft | 494 kts | 351° |
| 2026-05-07 14:02 | 44.72391 | 10.30952 | 25554 ft | 492 kts | 351° |
| 2026-05-07 14:02 | 44.75788 | 10.30625 | 24852 ft | 487 kts | 351° |
| 2026-05-07 14:02 | 44.79174 | 10.30293 | 23811 ft | 487 kts | 351° |
| 2026-05-07 14:03 | 44.82531 | 10.29963 | 23001 ft | 480 kts | 352° |
| 2026-05-07 14:03 | 44.85843 | 10.29637 | 22206 ft | 474 kts | 352° |
| 2026-05-07 14:03 | 44.89111 | 10.29319 | 21421 ft | 468 kts | 352° |
| 2026-05-07 14:03 | 44.92337 | 10.29003 | 20624 ft | 462 kts | 352° |
| 2026-05-07 14:04 | 44.95524 | 10.28689 | 19842 ft | 456 kts | 352° |
| 2026-05-07 14:04 | 44.98674 | 10.28377 | 19091 ft | 451 kts | 353° |
| 2026-05-07 14:04 | 45.01787 | 10.28066 | 18343 ft | 446 kts | 353° |
| 2026-05-07 14:04 | 45.04866 | 10.27758 | 17514 ft | 441 kts | 353° |
| 2026-05-07 14:05 | 45.07914 | 10.27450 | 16684 ft | 437 kts | 353° |
| 2026-05-07 14:05 | 45.10929 | 10.27146 | 15888 ft | 432 kts | 353° |
| 2026-05-07 14:05 | 45.13914 | 10.26850 | 15113 ft | 428 kts | 353° |
| 2026-05-07 14:05 | 45.16869 | 10.26556 | 14381 ft | 424 kts | 354° |
| 2026-05-07 14:06 | 45.19801 | 10.26265 | 13659 ft | 421 kts | 354° |
| 2026-05-07 14:06 | 45.22680 | 10.25982 | 13381 ft | 406 kts | 354° |
| 2026-05-07 14:06 | 45.25439 | 10.25713 | 13243 ft | 389 kts | 354° |
| 2026-05-07 14:06 | 45.28085 | 10.25455 | 13107 ft | 373 kts | 354° |
| 2026-05-07 14:07 | 45.30617 | 10.25206 | 12983 ft | 357 kts | 354° |
| 2026-05-07 14:07 | 45.33045 | 10.24963 | 12848 ft | 343 kts | 353° |
| 2026-05-07 14:07 | 45.35376 | 10.24726 | 12726 ft | 329 kts | 353° |
| 2026-05-07 14:07 | 45.37622 | 10.24499 | 12593 ft | 317 kts | 353° |
| 2026-05-07 14:08 | 45.39765 | 10.24285 | 12438 ft | 297 kts | 353° |
| 2026-05-07 14:08 | 45.41768 | 10.24087 | 12023 ft | 283 kts | 353° |
| 2026-05-07 14:08 | 45.43717 | 10.23890 | 11593 ft | 277 kts | 353° |
| 2026-05-07 14:08 | 45.45576 | 10.23431 | 11179 ft | 267 kts | 332° |
| 2026-05-07 14:09 | 45.46939 | 10.21783 | 10795 ft | 257 kts | 298° |
| 2026-05-07 14:09 | 45.47469 | 10.19390 | 10433 ft | 254 kts | 278° |
| 2026-05-07 14:09 | 45.47740 | 10.16896 | 10095 ft | 255 kts | 277° |
| 2026-05-07 14:09 | 45.47999 | 10.14397 | 9760 ft | 255 kts | 277° |
| 2026-05-07 14:10 | 45.48254 | 10.11920 | 9509 ft | 250 kts | 277° |
| 2026-05-07 14:10 | 45.48508 | 10.09478 | 9223 ft | 248 kts | 277° |
| 2026-05-07 14:10 | 45.48762 | 10.07053 | 8910 ft | 247 kts | 277° |
| 2026-05-07 14:10 | 45.49038 | 10.04642 | 8594 ft | 246 kts | 284° |
| 2026-05-07 14:11 | 45.49791 | 10.02475 | 8288 ft | 247 kts | 309° |
| 2026-05-07 14:11 | 45.51150 | 10.01003 | 7959 ft | 249 kts | 336° |
| 2026-05-07 14:11 | 45.52776 | 10.00193 | 7535 ft | 253 kts | 340° |
| 2026-05-07 14:11 | 45.54482 | 9.99386 | 7120 ft | 257 kts | 340° |
| 2026-05-07 14:12 | 45.56191 | 9.98581 | 6705 ft | 260 kts | 340° |
| 2026-05-07 14:12 | 45.57904 | 9.97773 | 6284 ft | 255 kts | 340° |
| 2026-05-07 14:12 | 45.59556 | 9.96993 | 5834 ft | 245 kts | 340° |
| 2026-05-07 14:12 | 45.61126 | 9.96127 | 5343 ft | 238 kts | 326° |
| 2026-05-07 14:13 | 45.62228 | 9.94517 | 4883 ft | 227 kts | 297° |
| 2026-05-07 14:13 | 45.62726 | 9.92433 | 4381 ft | 219 kts | 284° |
| 2026-05-07 14:13 | 45.63112 | 9.90358 | 3941 ft | 212 kts | 284° |
| 2026-05-07 14:13 | 45.63479 | 9.88396 | 3473 ft | 197 kts | 285° |
| 2026-05-07 14:14 | 45.63823 | 9.86554 | 2998 ft | 186 kts | 284° |
| 2026-05-07 14:14 | 45.64148 | 9.84816 | 2624 ft | 175 kts | 284° |
| 2026-05-07 14:14 | 45.64450 | 9.83206 | 2370 ft | 163 kts | 284° |
| 2026-05-07 14:14 | 45.64738 | 9.81666 | 2127 ft | 157 kts | 284° |
| 2026-05-07 14:15 | 45.65014 | 9.80192 | 1905 ft | 151 kts | 283° |
| 2026-05-07 14:15 | 45.65281 | 9.78759 | 1703 ft | 148 kts | 283° |
| 2026-05-07 14:15 | 45.65545 | 9.77346 | 1505 ft | 146 kts | 284° |
| 2026-05-07 14:15 | 45.65807 | 9.75946 | 1321 ft | 146 kts | 282° |
| 2026-05-07 14:16 | 45.66065 | 9.74561 | 1120 ft | 144 kts | 283° |
| 2026-05-07 14:16 | 45.66323 | 9.73178 | 941 ft | 144 kts | 282° |
| 2026-05-07 14:16 | 45.66580 | 9.71800 | 790 ft | 138 kts | 284° |
| 2026-05-07 14:16 | 45.66777 | 9.70647 | 787 ft | 101 kts | 286° |
| 2026-05-07 14:17 | 45.66872 | 9.70187 | 787 ft | 28 kts | 287° |
| 2026-05-07 14:17 | 45.66867 | 9.69960 | 787 ft | 13 kts | 243° |
| 2026-05-07 14:17 | 45.66852 | 9.69919 | 787 ft | 1 kts | 242° |
| 2026-05-07 14:17 | 45.66850 | 9.69913 | 787 ft | 1 kts | 242° |
| 2026-05-07 14:18 | 45.66843 | 9.69894 | 787 ft | 3 kts | 243° |
| 2026-05-07 14:18 | 45.66828 | 9.69868 | 787 ft | 4 kts | 224° |
| 2026-05-07 14:18 | 45.66795 | 9.69845 | 787 ft | 7 kts | 199° |
| 2026-05-07 14:18 | 45.66745 | 9.69824 | 787 ft | 8 kts | 195° |
| 2026-05-07 14:19 | 45.66691 | 9.69804 | 787 ft | 3 kts | 194° |
| 2026-05-07 14:19 | 45.66687 | 9.69802 | 787 ft | 0 kts | 194° |